createdAt,value
2022-11-24T00:02:05.061Z,100.00
2022-11-24T00:04:34.996Z,100.00
2022-11-24T00:07:06.099Z,100.00
2022-11-24T00:09:35.672Z,100.00
2022-11-24T00:12:05.988Z,100.00
2022-11-24T00:14:36.107Z,100.00
2022-11-24T00:17:06.274Z,100.00
2022-11-24T00:19:35.819Z,100.00
2022-11-24T00:22:06.701Z,100.00
2022-11-24T00:24:36.347Z,100.00
2022-11-24T00:27:07.270Z,100.00
2022-11-24T00:29:36.852Z,100.00
2022-11-24T00:32:07.210Z,100.00
2022-11-24T00:34:37.093Z,100.00
2022-11-24T00:37:07.985Z,100.00
2022-11-24T00:39:37.583Z,100.00
2022-11-24T00:42:07.024Z,100.00
2022-11-24T00:44:36.561Z,100.00
2022-11-24T00:47:06.217Z,100.00
2022-11-24T00:49:36.375Z,100.00
2022-11-24T00:52:06.128Z,100.00
2022-11-24T00:54:36.966Z,100.00
2022-11-24T00:57:06.489Z,100.00
2022-11-24T00:59:36.006Z,100.00
2022-11-24T01:02:05.531Z,100.00
2022-11-24T01:04:35.405Z,100.00
2022-11-24T01:07:05.376Z,100.00
2022-11-24T01:09:34.919Z,100.00
2022-11-24T01:12:06.700Z,100.00
2022-11-24T01:14:37.285Z,100.00
2022-11-24T01:17:07.483Z,100.00
2022-11-24T01:19:37.063Z,100.00
2022-11-24T01:22:07.865Z,100.00
2022-11-24T01:24:41.711Z,100.00
2022-11-24T01:27:12.753Z,100.00
2022-11-24T01:29:43.554Z,100.00
2022-11-24T01:32:13.091Z,100.00
2022-11-24T01:34:42.678Z,100.00
2022-11-24T01:37:12.172Z,100.00
2022-11-24T01:39:41.674Z,100.00
2022-11-24T01:42:12.553Z,100.00
2022-11-24T01:44:42.338Z,100.00
2022-11-24T01:47:25.592Z,100.00
2022-11-24T01:49:56.969Z,100.00
2022-11-24T01:52:29.934Z,100.00
2022-11-24T01:55:00.601Z,100.00
2022-11-24T01:57:33.447Z,100.00
2022-11-24T02:00:03.621Z,100.00
2022-11-24T02:02:33.194Z,100.00
2022-11-24T02:05:09.226Z,100.00
2022-11-24T02:07:38.999Z,100.00
2022-11-24T02:10:11.778Z,100.00
2022-11-24T02:12:45.124Z,100.00
2022-11-24T02:15:15.349Z,100.00
2022-11-24T02:17:45.495Z,100.00
2022-11-24T02:20:16.399Z,100.00
2022-11-24T02:22:49.422Z,100.00
2022-11-24T02:25:24.813Z,100.00
2022-11-24T02:27:57.142Z,100.00
2022-11-24T02:30:26.708Z,100.00
2022-11-24T02:32:56.304Z,100.00
2022-11-24T02:35:27.144Z,100.00
2022-11-24T02:37:56.929Z,100.00
2022-11-24T02:40:27.999Z,100.00
2022-11-24T02:43:03.472Z,100.00
2022-11-24T02:45:32.973Z,100.00
2022-11-24T02:48:02.461Z,100.00
2022-11-24T02:50:32.399Z,100.00
2022-11-24T02:53:02.073Z,100.00
2022-11-24T02:55:31.581Z,100.00
2022-11-24T02:58:02.690Z,100.00
2022-11-24T03:00:32.171Z,100.00
2022-11-24T03:03:01.680Z,100.00
2022-11-24T03:05:31.225Z,100.00
2022-11-24T03:08:01.207Z,100.00
2022-11-24T03:10:31.169Z,100.00
2022-11-24T03:13:02.673Z,100.00
2022-11-24T03:15:33.148Z,100.00
2022-11-24T03:18:02.707Z,100.00
2022-11-24T03:20:32.476Z,100.00
2022-11-24T03:23:01.967Z,100.00
2022-11-24T03:25:31.591Z,100.00
2022-11-24T03:28:02.444Z,100.00
2022-11-24T03:30:32.000Z,100.00
2022-11-24T03:33:01.461Z,100.00
2022-11-24T03:35:31.045Z,100.00
2022-11-24T03:38:00.530Z,100.00
2022-11-24T03:40:30.027Z,100.00
2022-11-24T03:42:59.562Z,100.00
2022-11-24T03:45:45.503Z,100.00
2022-11-24T03:48:16.240Z,100.00
2022-11-24T03:50:53.356Z,100.00
2022-11-24T03:53:23.577Z,100.00
2022-11-24T03:55:53.451Z,100.00
2022-11-24T03:58:23.761Z,100.00
2022-11-24T04:00:54.984Z,100.00
2022-11-24T04:03:25.888Z,100.00
2022-11-24T04:05:55.413Z,100.00
2022-11-24T04:08:24.984Z,100.00
2022-11-24T04:10:55.229Z,100.00
2022-11-24T04:13:24.761Z,100.00
2022-11-24T04:15:55.981Z,100.00
2022-11-24T04:18:25.703Z,100.00
2022-11-24T04:20:55.159Z,100.00
2022-11-24T04:23:24.728Z,100.00
2022-11-24T04:25:54.154Z,100.00
2022-11-24T04:28:23.785Z,100.00
2022-11-24T04:30:53.407Z,100.00
2022-11-24T04:33:24.388Z,100.00
2022-11-24T04:35:54.275Z,100.00
2022-11-24T04:39:20.122Z,100.00
2022-11-24T04:41:13.472Z,100.00
2022-11-24T04:43:44.245Z,100.00
2022-11-24T04:46:13.855Z,100.00
2022-11-24T04:48:48.553Z,100.00
2022-11-24T04:51:19.375Z,100.00
2022-11-24T04:53:49.780Z,100.00
2022-11-24T04:56:19.530Z,100.00
2022-11-24T04:58:49.081Z,100.00
2022-11-24T05:01:18.731Z,100.00
2022-11-24T05:03:49.753Z,100.00
2022-11-24T05:06:19.372Z,100.00
2022-11-24T05:08:49.185Z,100.00
2022-11-24T05:11:19.163Z,100.00
2022-11-24T05:13:49.626Z,100.00
2022-11-24T05:16:19.905Z,100.00
2022-11-24T05:18:51.094Z,100.00
2022-11-24T05:21:20.667Z,100.00
2022-11-24T05:23:50.133Z,100.00
2022-11-24T05:26:19.681Z,100.00
2022-11-24T05:28:49.157Z,100.00
2022-11-24T05:31:20.061Z,100.00
2022-11-24T05:33:51.538Z,100.00
2022-11-24T05:36:38.795Z,100.00
2022-11-24T05:39:08.426Z,100.00
2022-11-24T05:41:37.988Z,100.00
2022-11-24T05:44:07.917Z,100.00
2022-11-24T05:46:37.859Z,99.95
2022-11-24T05:49:09.040Z,100.00
2022-11-24T05:51:38.672Z,100.00
2022-11-24T05:54:08.208Z,100.00
2022-11-24T05:56:37.757Z,100.00
2022-11-24T05:59:09.974Z,100.00
2022-11-24T06:01:39.840Z,100.00
2022-11-24T06:04:10.784Z,100.00
2022-11-24T06:06:40.603Z,100.00
2022-11-24T06:09:10.268Z,100.00
2022-11-24T06:11:40.051Z,100.00
2022-11-24T06:14:11.488Z,100.00
2022-11-24T06:16:41.599Z,100.00
2022-11-24T06:19:12.936Z,100.00
2022-11-24T06:21:42.568Z,100.00
2022-11-24T06:24:12.463Z,100.00
2022-11-24T06:26:42.375Z,100.00
2022-11-24T06:29:11.948Z,100.00
2022-11-24T06:31:41.626Z,100.00
2022-11-24T06:34:13.759Z,100.00
2022-11-24T06:36:43.301Z,100.00
2022-11-24T06:39:12.796Z,100.00
2022-11-24T06:41:42.292Z,100.00
2022-11-24T06:44:12.019Z,100.00
2022-11-24T06:46:41.498Z,100.00
2022-11-24T06:49:12.533Z,100.00
2022-11-24T06:51:43.073Z,100.00
2022-11-24T06:54:15.230Z,100.00
2022-11-24T06:56:44.684Z,100.00
2022-11-24T06:59:17.455Z,100.00
2022-11-24T07:01:48.011Z,100.00
2022-11-24T07:04:19.092Z,99.78
2022-11-24T07:06:48.844Z,99.79
2022-11-24T07:09:18.385Z,98.80
2022-11-24T07:11:48.628Z,98.44
2022-11-24T07:14:19.266Z,98.53
2022-11-24T07:16:49.637Z,98.81
2022-11-24T07:19:24.880Z,99.10
2022-11-24T07:21:55.003Z,98.40
2022-11-24T07:24:24.525Z,97.46
2022-11-24T07:26:54.249Z,96.33
2022-11-24T07:29:23.840Z,96.30
2022-11-24T07:31:53.482Z,96.08
2022-11-24T07:34:24.711Z,96.32
2022-11-24T07:36:54.338Z,96.50
2022-11-24T07:39:24.024Z,95.43
2022-11-24T07:41:53.531Z,95.33
2022-11-24T07:44:23.090Z,95.32
2022-11-24T07:46:53.027Z,94.71
2022-11-24T07:49:24.634Z,94.53
2022-11-24T07:51:54.351Z,93.08
2022-11-24T07:54:23.958Z,92.67
2022-11-24T07:56:53.484Z,91.36
2022-11-24T07:59:23.472Z,91.68
2022-11-24T08:01:53.257Z,91.58
2022-11-24T08:04:24.988Z,91.67
2022-11-24T08:06:54.448Z,91.34
2022-11-24T08:09:24.104Z,91.33
2022-11-24T08:11:54.566Z,90.49
2022-11-24T08:14:25.024Z,90.41
2022-11-24T08:16:55.022Z,90.74
2022-11-24T08:19:26.313Z,90.58
2022-11-24T08:21:55.956Z,89.67
2022-11-24T08:24:25.841Z,89.58
2022-11-24T08:26:55.557Z,89.00
2022-11-24T08:29:28.647Z,88.86
2022-11-24T08:31:58.510Z,88.57
2022-11-24T08:34:29.605Z,88.33
2022-11-24T08:36:59.584Z,88.26
2022-11-24T08:39:29.263Z,87.18
2022-11-24T08:41:59.003Z,87.84
2022-11-24T08:44:29.168Z,87.15
2022-11-24T08:46:58.770Z,84.72
2022-11-24T08:49:29.762Z,84.61
2022-11-24T08:51:59.705Z,83.86
2022-11-24T08:54:29.477Z,83.71
2022-11-24T08:56:59.533Z,84.77
2022-11-24T08:59:29.274Z,82.93
2022-11-24T09:01:59.214Z,81.85
2022-11-24T09:04:30.261Z,82.08
2022-11-24T09:07:00.055Z,82.21
2022-11-24T09:09:29.605Z,80.58
2022-11-24T09:12:00.308Z,79.91
2022-11-24T09:14:30.362Z,80.12
2022-11-24T09:17:02.221Z,79.45
2022-11-24T09:19:33.701Z,79.36
2022-11-24T09:22:03.440Z,80.12
2022-11-24T09:24:43.937Z,80.61
2022-11-24T09:27:13.526Z,79.75
2022-11-24T09:29:43.207Z,79.33
2022-11-24T09:32:12.684Z,78.94
2022-11-24T09:34:43.654Z,79.63
2022-11-24T09:37:13.248Z,78.90
2022-11-24T09:39:42.875Z,78.85
2022-11-24T09:42:15.445Z,79.47
2022-11-24T09:44:53.099Z,79.43
2022-11-24T09:47:29.429Z,78.73
2022-11-24T09:50:02.521Z,78.25
2022-11-24T09:52:39.289Z,77.81
2022-11-24T09:55:16.264Z,78.74
2022-11-24T09:57:45.867Z,77.96
2022-11-24T10:00:16.134Z,78.85
2022-11-24T10:02:49.205Z,78.52
2022-11-24T10:05:20.405Z,79.05
2022-11-24T10:07:58.510Z,78.50
2022-11-24T10:10:31.706Z,78.37
2022-11-24T10:13:17.223Z,76.84
2022-11-24T10:15:49.247Z,74.76
2022-11-24T10:18:33.864Z,75.17
2022-11-24T10:21:12.853Z,74.05
2022-11-24T10:23:51.303Z,74.41
2022-11-24T10:26:25.435Z,74.65
2022-11-24T10:28:56.046Z,73.85
2022-11-24T10:31:30.744Z,72.49
2022-11-24T10:34:02.675Z,70.41
2022-11-24T10:36:39.272Z,70.61
2022-11-24T10:39:14.489Z,68.90
2022-11-24T10:41:48.107Z,70.61
2022-11-24T10:44:17.840Z,70.66
2022-11-24T10:46:47.702Z,71.30
2022-11-24T10:49:19.574Z,71.79
2022-11-24T10:51:57.582Z,72.03
2022-11-24T10:54:27.314Z,72.13
2022-11-24T10:56:56.852Z,72.79
2022-11-24T10:59:32.255Z,71.19
2022-11-24T11:02:02.765Z,71.42
2022-11-24T11:04:33.244Z,71.24
2022-11-24T11:07:16.986Z,70.84
2022-11-24T11:09:46.910Z,70.90
2022-11-24T11:12:42.958Z,70.56
2022-11-24T11:15:23.188Z,70.63
2022-11-24T11:17:57.430Z,67.29
2022-11-24T11:20:30.045Z,66.46
2022-11-24T11:23:02.562Z,67.15
2022-11-24T11:25:34.260Z,66.77
2022-11-24T11:28:24.542Z,66.65
2022-11-24T11:31:17.916Z,66.69
2022-11-24T11:34:10.619Z,66.38
2022-11-24T11:36:43.031Z,65.92
2022-11-24T11:39:21.433Z,66.56
2022-11-24T11:41:54.748Z,66.15
2022-11-24T11:44:31.172Z,64.91
2022-11-24T11:47:02.828Z,65.11
2022-11-24T11:49:32.402Z,65.37
2022-11-24T11:52:16.094Z,65.54
2022-11-24T11:54:57.947Z,65.85
2022-11-24T11:57:32.261Z,66.78
2022-11-24T12:00:09.653Z,66.69
2022-11-24T12:02:57.970Z,65.87
2022-11-24T12:05:31.066Z,66.47
2022-11-24T12:08:11.542Z,66.70
2022-11-24T12:10:47.361Z,66.83
2022-11-24T12:13:32.936Z,67.37
2022-11-24T12:16:09.296Z,67.54
2022-11-24T12:18:59.300Z,67.31
2022-11-24T12:21:33.612Z,68.41
2022-11-24T12:24:10.779Z,69.29
2022-11-24T12:26:45.481Z,68.19
2022-11-24T12:29:32.115Z,68.22
2022-11-24T12:32:08.772Z,68.43
2022-11-24T12:34:44.435Z,69.04
2022-11-24T12:37:21.943Z,69.13
2022-11-24T12:39:56.753Z,70.24
2022-11-24T12:42:35.700Z,69.84
2022-11-24T12:45:14.145Z,70.13
2022-11-24T12:47:50.573Z,70.39
2022-11-24T12:50:21.281Z,70.82
2022-11-24T12:52:58.459Z,69.96
2022-11-24T12:55:30.091Z,69.93
2022-11-24T12:58:11.193Z,69.37
2022-11-24T13:00:47.451Z,68.57
2022-11-24T13:03:24.189Z,68.96
2022-11-24T13:05:58.792Z,69.86
2022-11-24T13:08:29.223Z,69.54
2022-11-24T13:11:25.945Z,69.99
2022-11-24T13:13:59.973Z,68.45
2022-11-24T13:16:48.525Z,68.49
2022-11-24T13:19:21.985Z,68.79
2022-11-24T13:22:01.119Z,68.01
2022-11-24T13:24:32.184Z,68.34
2022-11-24T13:27:27.656Z,68.42
2022-11-24T13:29:58.711Z,68.60
2022-11-24T13:32:52.256Z,67.62
2022-11-24T13:35:22.067Z,67.75
2022-11-24T13:37:52.910Z,68.07
2022-11-24T13:40:37.621Z,68.51
2022-11-24T13:43:23.536Z,69.43
2022-11-24T13:45:54.963Z,69.22
2022-11-24T13:48:43.220Z,69.56
2022-11-24T13:51:23.430Z,70.33
2022-11-24T13:53:54.648Z,70.28
2022-11-24T13:56:31.610Z,71.45
2022-11-24T13:59:03.757Z,71.38
2022-11-24T14:01:37.113Z,70.82
2022-11-24T14:04:29.805Z,71.95
2022-11-24T14:07:07.769Z,72.94
2022-11-24T14:09:41.940Z,74.59
2022-11-24T14:12:15.767Z,75.27
2022-11-24T14:14:46.694Z,76.23
2022-11-24T14:17:19.804Z,76.77
2022-11-24T14:19:50.525Z,76.71
2022-11-24T14:22:21.904Z,76.91
2022-11-24T14:24:55.935Z,77.06
2022-11-24T14:27:32.689Z,76.90
2022-11-24T14:30:03.404Z,76.44
2022-11-24T14:32:34.321Z,76.54
2022-11-24T14:35:16.450Z,76.61
2022-11-24T14:37:46.071Z,76.35
2022-11-24T14:40:30.425Z,76.30
2022-11-24T14:43:00.074Z,76.54
2022-11-24T14:45:29.556Z,76.42
2022-11-24T14:48:00.545Z,76.68
2022-11-24T14:50:30.240Z,76.88
2022-11-24T14:53:00.148Z,76.87
2022-11-24T14:55:30.510Z,76.81
2022-11-24T14:58:00.981Z,77.53
2022-11-24T15:00:31.554Z,76.55
2022-11-24T15:03:17.209Z,76.96
2022-11-24T15:05:57.212Z,73.80
2022-11-24T15:08:28.225Z,72.10
2022-11-24T15:10:59.978Z,69.95
2022-11-24T15:13:30.884Z,69.20
2022-11-24T15:16:03.719Z,68.31
2022-11-24T15:18:37.414Z,64.91
2022-11-24T15:21:07.213Z,65.36
2022-11-24T15:23:37.349Z,64.79
2022-11-24T15:26:24.819Z,64.82
2022-11-24T15:28:58.800Z,64.47
2022-11-24T15:31:28.513Z,64.74
2022-11-24T15:33:59.413Z,65.50
2022-11-24T15:36:28.986Z,63.39
2022-11-24T15:38:58.694Z,64.00
2022-11-24T15:41:29.642Z,63.55
2022-11-24T15:44:00.190Z,62.93
2022-11-24T15:46:30.684Z,63.84
2022-11-24T15:49:01.683Z,62.82
2022-11-24T15:51:31.903Z,63.97
2022-11-24T15:54:01.697Z,64.50
2022-11-24T15:56:32.478Z,63.49
2022-11-24T15:59:02.543Z,64.29
2022-11-24T16:01:33.100Z,63.54
2022-11-24T16:04:04.212Z,64.00
2022-11-24T16:06:33.781Z,64.17
2022-11-24T16:09:03.265Z,63.08
2022-11-24T16:11:32.920Z,62.81
2022-11-24T16:14:03.124Z,64.05
2022-11-24T16:16:33.087Z,61.83
2022-11-24T16:19:04.102Z,62.24
2022-11-24T16:21:33.574Z,61.99
2022-11-24T16:24:03.080Z,62.84
2022-11-24T16:26:32.876Z,61.94
2022-11-24T16:29:02.457Z,62.55
2022-11-24T16:31:32.001Z,62.20
2022-11-24T16:34:01.556Z,61.69
2022-11-24T16:36:32.486Z,61.65
2022-11-24T16:39:02.157Z,61.48
2022-11-24T16:41:31.701Z,61.65
2022-11-24T16:44:01.239Z,62.02
2022-11-24T16:46:30.974Z,62.07
2022-11-24T16:49:01.581Z,61.42
2022-11-24T16:51:35.002Z,61.60
2022-11-24T16:54:05.131Z,59.65
2022-11-24T16:56:34.744Z,59.78
2022-11-24T16:59:04.544Z,59.37
2022-11-24T17:01:34.289Z,59.03
2022-11-24T17:04:07.075Z,58.86
2022-11-24T17:06:42.079Z,59.07
2022-11-24T17:09:11.752Z,59.03
2022-11-24T17:11:42.125Z,58.65
2022-11-24T17:14:12.408Z,58.20
2022-11-24T17:16:42.638Z,57.82
2022-11-24T17:19:12.949Z,57.89
2022-11-24T17:21:43.904Z,58.20
2022-11-24T17:24:17.508Z,57.54
2022-11-24T17:26:49.181Z,56.75
2022-11-24T17:29:19.051Z,57.17
2022-11-24T17:31:49.096Z,56.87
2022-11-24T17:34:18.785Z,56.18
2022-11-24T17:36:50.104Z,56.17
2022-11-24T17:39:24.485Z,56.47
2022-11-24T17:41:54.640Z,56.83
2022-11-24T17:44:24.231Z,56.88
2022-11-24T17:46:53.757Z,56.54
2022-11-24T17:49:23.400Z,56.23
2022-11-24T17:51:54.284Z,56.17
2022-11-24T17:54:45.489Z,56.75
2022-11-24T17:57:13.576Z,56.55
2022-11-24T17:59:43.870Z,57.06
2022-11-24T18:02:13.438Z,57.63
2022-11-24T18:04:43.001Z,57.15
2022-11-24T18:07:14.032Z,56.46
2022-11-24T18:09:44.138Z,57.39
2022-11-24T18:12:13.693Z,56.89
2022-11-24T18:14:43.703Z,57.54
2022-11-24T18:17:13.312Z,56.96
2022-11-24T18:19:42.894Z,57.55
2022-11-24T18:22:14.076Z,57.94
2022-11-24T18:24:43.809Z,57.39
2022-11-24T18:27:13.612Z,58.31
2022-11-24T18:29:43.383Z,57.95
2022-11-24T18:32:13.120Z,57.48
2022-11-24T18:34:42.723Z,58.31
2022-11-24T18:37:13.576Z,57.49
2022-11-24T18:39:44.526Z,57.85
2022-11-24T18:42:14.174Z,57.73
2022-11-24T18:44:45.415Z,58.16
2022-11-24T18:47:17.319Z,57.15
2022-11-24T18:49:46.980Z,57.59
2022-11-24T18:52:16.856Z,57.45
2022-11-24T18:54:47.997Z,57.38
2022-11-24T18:57:17.754Z,56.77
2022-11-24T18:59:47.701Z,57.71
2022-11-24T19:02:17.463Z,57.44
2022-11-24T19:04:47.462Z,57.86
2022-11-24T19:07:17.426Z,58.42
2022-11-24T19:09:48.592Z,57.57
2022-11-24T19:12:19.638Z,57.65
2022-11-24T19:14:49.946Z,57.27
2022-11-24T19:17:20.277Z,57.41
2022-11-24T19:19:49.887Z,57.97
2022-11-24T19:22:19.569Z,57.27
2022-11-24T19:24:50.872Z,57.21
2022-11-24T19:27:21.940Z,57.63
2022-11-24T19:29:51.671Z,58.17
2022-11-24T19:32:21.244Z,57.36
2022-11-24T19:34:50.845Z,57.19
2022-11-24T19:37:21.558Z,57.33
2022-11-24T19:39:52.728Z,57.75
2022-11-24T19:42:22.364Z,56.81
2022-11-24T19:44:56.378Z,57.41
2022-11-24T19:47:27.927Z,58.00
2022-11-24T19:49:57.547Z,57.19
2022-11-24T19:52:27.351Z,57.46
2022-11-24T19:54:59.858Z,57.27
2022-11-24T19:57:29.624Z,57.05
2022-11-24T19:59:59.366Z,57.25
2022-11-24T20:02:29.956Z,57.45
2022-11-24T20:04:59.634Z,57.95
2022-11-24T20:07:29.363Z,57.88
2022-11-24T20:10:06.237Z,58.26
2022-11-24T20:12:37.853Z,58.23
2022-11-24T20:15:08.619Z,58.17
2022-11-24T20:17:38.809Z,58.49
2022-11-24T20:20:08.658Z,58.06
2022-11-24T20:22:38.294Z,58.83
2022-11-24T20:25:10.996Z,58.45
2022-11-24T20:27:40.759Z,58.48
2022-11-24T20:30:11.015Z,59.17
2022-11-24T20:32:40.851Z,58.82
2022-11-24T20:35:15.085Z,58.56
2022-11-24T20:37:47.800Z,58.65
2022-11-24T20:40:19.032Z,59.08
2022-11-24T20:42:48.648Z,59.28
2022-11-24T20:45:18.219Z,59.68
2022-11-24T20:47:47.874Z,59.53
2022-11-24T20:50:17.605Z,59.49
2022-11-24T20:52:47.361Z,59.60
2022-11-24T20:55:18.301Z,59.05
2022-11-24T20:57:48.246Z,59.14
2022-11-24T21:00:18.495Z,59.98
2022-11-24T21:02:48.045Z,59.78
2022-11-24T21:05:17.680Z,58.89
2022-11-24T21:07:47.554Z,59.55
2022-11-24T21:10:18.827Z,59.16
2022-11-24T21:12:48.783Z,59.27
2022-11-24T21:15:18.753Z,59.10
2022-11-24T21:17:48.540Z,59.70
2022-11-24T21:20:18.179Z,59.60
2022-11-24T21:22:47.680Z,59.70
2022-11-24T21:25:19.060Z,59.75
2022-11-24T21:27:48.622Z,60.16
2022-11-24T21:30:18.243Z,59.51
2022-11-24T21:32:47.764Z,59.82
2022-11-24T21:35:17.378Z,59.86
2022-11-24T21:37:46.905Z,59.99
2022-11-24T21:40:16.610Z,59.79
2022-11-24T21:42:47.468Z,59.64
2022-11-24T21:45:17.005Z,59.68
2022-11-24T21:47:47.540Z,59.69
2022-11-24T21:50:17.312Z,59.09
2022-11-24T21:52:47.605Z,58.99
2022-11-24T21:55:17.118Z,58.65
2022-11-24T21:57:48.059Z,59.84
2022-11-24T22:00:18.105Z,59.12
2022-11-24T22:02:47.940Z,59.55
2022-11-24T22:05:17.545Z,59.10
2022-11-24T22:07:47.506Z,59.49
2022-11-24T22:10:17.197Z,59.44
2022-11-24T22:12:50.079Z,58.87
2022-11-24T22:15:20.033Z,59.87
2022-11-24T22:17:49.588Z,59.72
2022-11-24T22:20:19.188Z,59.56
2022-11-24T22:22:48.775Z,59.28
2022-11-24T22:25:18.313Z,59.36
2022-11-24T22:27:47.801Z,59.62
2022-11-24T22:30:19.067Z,59.16
2022-11-24T22:32:48.687Z,59.34
2022-11-24T22:35:18.186Z,59.19
2022-11-24T22:37:47.944Z,59.70
2022-11-24T22:40:17.611Z,59.92
2022-11-24T22:42:47.543Z,60.37
2022-11-24T22:45:18.524Z,59.54
2022-11-24T22:47:48.124Z,59.72
2022-11-24T22:50:17.598Z,59.24
2022-11-24T22:52:47.394Z,59.27
2022-11-24T22:55:17.056Z,59.37
2022-11-24T22:57:48.391Z,59.32
2022-11-24T23:00:20.019Z,59.55
2022-11-24T23:02:49.664Z,59.08
2022-11-24T23:05:20.878Z,59.25
2022-11-24T23:07:50.677Z,59.72
2022-11-24T23:10:20.261Z,59.32
2022-11-24T23:12:51.013Z,59.57
2022-11-24T23:15:22.403Z,59.69
2022-11-24T23:17:51.869Z,59.22
2022-11-24T23:20:21.475Z,59.12
2022-11-24T23:22:50.939Z,59.60
2022-11-24T23:25:20.528Z,59.36
2022-11-24T23:27:50.194Z,60.22
2022-11-24T23:30:19.783Z,59.20
2022-11-24T23:32:50.775Z,59.32
2022-11-24T23:35:20.284Z,60.04
2022-11-24T23:38:07.147Z,59.64
2022-11-24T23:40:37.469Z,60.33
2022-11-24T23:43:07.292Z,59.92
2022-11-24T23:45:36.914Z,60.09
2022-11-24T23:48:09.026Z,60.22
2022-11-24T23:50:38.521Z,60.17
2022-11-24T23:53:08.020Z,60.74
2022-11-24T23:55:37.678Z,60.61
2022-11-24T23:58:07.186Z,60.48
